createdAt,value
2019-01-13T00:00:22.177Z,4.17
2019-01-13T00:02:50.637Z,2.63
2019-01-13T00:05:19.143Z,1.70
2019-01-13T00:07:47.601Z,1.80
2019-01-13T00:10:16.055Z,1.13
2019-01-13T00:12:44.637Z,1.40
2019-01-13T00:15:13.235Z,1.50
2019-01-13T00:17:41.746Z,1.00
2019-01-13T00:20:11.955Z,1.30
2019-01-13T00:22:41.431Z,1.83
2019-01-13T00:25:10.015Z,1.50
2019-01-13T00:27:38.450Z,3.40
2019-01-13T00:30:19.223Z,10.17
2019-01-13T00:32:43.051Z,4.83
2019-01-13T00:35:11.648Z,5.63
2019-01-13T00:37:40.091Z,5.63
2019-01-13T00:40:11.633Z,5.80
2019-01-13T00:42:40.091Z,5.50
2019-01-13T00:45:10.264Z,5.47
2019-01-13T00:47:38.713Z,4.70
2019-01-13T00:50:12.445Z,4.93
2019-01-13T00:52:41.129Z,4.53
2019-01-13T00:55:11.611Z,5.13
2019-01-13T00:57:40.222Z,5.77
2019-01-13T01:00:14.525Z,5.33
2019-01-13T01:02:43.131Z,5.03
2019-01-13T01:05:11.803Z,4.70
2019-01-13T01:07:40.401Z,8.90
2019-01-13T01:10:11.971Z,5.10
2019-01-13T01:12:40.680Z,4.30
2019-01-13T01:15:11.076Z,5.20
2019-01-13T01:17:39.765Z,5.00
2019-01-13T01:20:16.265Z,4.20
2019-01-13T01:22:44.883Z,4.27
2019-01-13T01:25:15.694Z,4.70
2019-01-13T01:27:44.274Z,4.70
2019-01-13T01:30:19.866Z,4.23
2019-01-13T01:32:48.365Z,3.87
2019-01-13T01:35:17.268Z,3.80
2019-01-13T01:37:45.974Z,3.27
2019-01-13T01:40:16.774Z,3.10
2019-01-13T01:42:45.430Z,2.73
2019-01-13T01:45:15.399Z,1.87
2019-01-13T01:47:44.035Z,1.40
2019-01-13T01:50:14.215Z,1.57
2019-01-13T01:52:42.748Z,1.57
2019-01-13T01:55:13.826Z,1.03
2019-01-13T01:57:42.418Z,0.77
2019-01-13T02:00:16.568Z,0.90
2019-01-13T02:02:45.260Z,1.00
2019-01-13T02:05:13.820Z,0.93
2019-01-13T02:07:42.345Z,1.00
2019-01-13T02:10:18.239Z,1.00
2019-01-13T02:12:46.698Z,1.47
2019-01-13T02:15:18.279Z,1.37
2019-01-13T02:17:46.791Z,1.50
2019-01-13T02:20:17.687Z,1.63
2019-01-13T02:22:46.669Z,1.27
2019-01-13T02:25:20.873Z,1.73
2019-01-13T02:27:49.317Z,1.87
2019-01-13T02:30:22.767Z,1.80
2019-01-13T02:32:51.401Z,2.13
2019-01-13T02:35:19.996Z,1.93
2019-01-13T02:37:48.434Z,1.67
2019-01-13T02:40:18.911Z,1.47
2019-01-13T02:42:47.461Z,1.27
2019-01-13T02:45:23.813Z,1.40
2019-01-13T02:47:52.521Z,1.67
2019-01-13T02:50:20.955Z,1.50
2019-01-13T02:52:49.552Z,1.67
2019-01-13T02:55:17.998Z,1.30
2019-01-13T02:57:46.619Z,1.57
2019-01-13T03:00:25.127Z,1.30
2019-01-13T03:02:53.797Z,1.10
2019-01-13T03:05:22.484Z,1.23
2019-01-13T03:07:51.019Z,1.10
2019-01-13T03:10:22.160Z,1.20
2019-01-13T03:12:50.855Z,0.90
2019-01-13T03:15:21.034Z,0.90
2019-01-13T03:17:50.167Z,0.90
2019-01-13T03:20:18.714Z,1.10
2019-01-13T03:22:47.239Z,0.87
2019-01-13T03:25:18.021Z,0.70
2019-01-13T03:27:46.534Z,0.53
2019-01-13T03:30:17.718Z,0.73
2019-01-13T03:32:46.241Z,0.70
2019-01-13T03:35:15.010Z,0.50
2019-01-13T03:37:43.595Z,0.47
2019-01-13T03:40:15.448Z,0.80
2019-01-13T03:42:43.894Z,0.80
2019-01-13T03:45:12.478Z,0.50
2019-01-13T03:47:41.016Z,0.60
2019-01-13T03:50:12.523Z,0.50
2019-01-13T03:52:40.982Z,0.77
2019-01-13T03:55:10.152Z,0.60
2019-01-13T03:57:38.591Z,0.60
2019-01-13T04:00:10.105Z,0.50
2019-01-13T04:02:38.551Z,0.60
2019-01-13T04:05:07.055Z,0.70
2019-01-13T04:07:35.515Z,0.50
2019-01-13T04:10:06.966Z,0.70
2019-01-13T04:12:35.409Z,0.37
2019-01-13T04:15:05.489Z,0.63
2019-01-13T04:17:34.083Z,1.17
2019-01-13T04:20:02.595Z,1.10
2019-01-13T04:22:31.052Z,1.33
2019-01-13T04:24:59.505Z,1.63
2019-01-13T04:27:28.131Z,1.80
2019-01-13T04:29:56.637Z,1.20
2019-01-13T04:32:25.075Z,1.50
2019-01-13T04:34:53.523Z,1.07
2019-01-13T04:37:21.967Z,1.20
2019-01-13T04:39:50.423Z,1.50
2019-01-13T04:42:18.845Z,1.47
2019-01-13T04:44:47.308Z,1.30
2019-01-13T04:47:15.748Z,1.40
2019-01-13T04:49:44.199Z,1.60
2019-01-13T04:52:12.639Z,1.70
2019-01-13T04:54:41.094Z,2.00
2019-01-13T04:57:09.570Z,1.73
2019-01-13T04:59:38.032Z,2.10
2019-01-13T05:02:06.461Z,1.80
2019-01-13T05:04:34.922Z,1.60
2019-01-13T05:07:03.366Z,1.60
2019-01-13T05:09:31.886Z,1.50
2019-01-13T05:12:00.322Z,1.50
2019-01-13T05:14:28.775Z,1.20
2019-01-13T05:16:57.215Z,1.33
2019-01-13T05:19:25.676Z,1.50
2019-01-13T05:21:54.110Z,1.57
2019-01-13T05:24:22.637Z,1.17
2019-01-13T05:26:51.076Z,1.10
2019-01-13T05:29:19.522Z,1.50
2019-01-13T05:31:47.966Z,1.13
2019-01-13T05:34:16.419Z,1.10
2019-01-13T05:36:44.842Z,1.10
2019-01-13T05:39:13.303Z,1.00
2019-01-13T05:41:41.742Z,1.33
2019-01-13T05:44:10.194Z,1.33
2019-01-13T05:46:38.630Z,1.33
2019-01-13T05:49:07.086Z,1.40
2019-01-13T05:51:35.518Z,1.20
2019-01-13T05:54:04.042Z,1.20
2019-01-13T05:56:32.486Z,1.67
2019-01-13T05:59:00.938Z,1.20
2019-01-13T06:01:29.380Z,1.23
2019-01-13T06:03:57.807Z,1.03
2019-01-13T06:06:26.279Z,1.23
2019-01-13T06:08:54.717Z,1.27
2019-01-13T06:11:23.175Z,1.60
2019-01-13T06:13:51.632Z,1.07
2019-01-13T06:16:20.163Z,1.40
2019-01-13T06:18:48.611Z,1.40
2019-01-13T06:21:17.062Z,1.30
2019-01-13T06:23:45.497Z,1.60
2019-01-13T06:26:13.967Z,1.43
2019-01-13T06:28:42.419Z,1.30
2019-01-13T06:31:10.891Z,1.40
2019-01-13T06:33:39.321Z,1.57
2019-01-13T06:36:07.849Z,1.60
2019-01-13T06:38:36.283Z,1.53
2019-01-13T06:41:04.813Z,1.50
2019-01-13T06:43:33.249Z,1.20
2019-01-13T06:46:01.714Z,1.60
2019-01-13T06:48:30.224Z,1.40
2019-01-13T06:50:58.677Z,1.80
2019-01-13T06:53:27.113Z,1.33
2019-01-13T06:55:55.588Z,1.47
2019-01-13T06:58:24.021Z,1.60
2019-01-13T07:00:52.485Z,1.50
2019-01-13T07:03:21.195Z,1.50
2019-01-13T07:05:49.654Z,1.80
2019-01-13T07:08:18.102Z,1.60
2019-01-13T07:10:46.544Z,1.30
2019-01-13T07:13:15.046Z,1.50
2019-01-13T07:15:43.501Z,1.27
2019-01-13T07:18:11.944Z,1.37
2019-01-13T07:20:40.386Z,1.40
2019-01-13T07:23:08.838Z,1.33
2019-01-13T07:25:37.278Z,1.40
2019-01-13T07:28:05.802Z,1.20
2019-01-13T07:30:34.237Z,1.40
2019-01-13T07:33:02.690Z,1.17
2019-01-13T07:35:31.134Z,1.50
2019-01-13T07:37:59.742Z,1.30
2019-01-13T07:40:28.238Z,1.30
2019-01-13T07:42:56.693Z,1.10
2019-01-13T07:45:25.205Z,1.20
2019-01-13T07:47:53.690Z,1.20
2019-01-13T07:50:22.440Z,1.00
2019-01-13T07:52:50.900Z,1.20
2019-01-13T07:55:20.586Z,1.00
2019-01-13T07:57:49.037Z,1.27
2019-01-13T08:00:25.927Z,1.20
2019-01-13T08:02:54.383Z,1.20
2019-01-13T08:05:22.955Z,1.20
2019-01-13T08:07:51.410Z,1.40
2019-01-13T08:10:19.847Z,1.40
2019-01-13T08:12:48.287Z,1.30
2019-01-13T08:15:21.080Z,1.53
2019-01-13T08:17:49.712Z,1.30
2019-01-13T08:20:24.150Z,1.50
2019-01-13T08:22:52.687Z,1.27
2019-01-13T08:25:21.281Z,1.70
2019-01-13T08:27:49.738Z,1.30
2019-01-13T08:30:19.820Z,1.50
2019-01-13T08:32:48.344Z,1.80
2019-01-13T08:35:16.916Z,1.47
2019-01-13T08:37:45.379Z,1.60
2019-01-13T08:40:16.167Z,1.73
2019-01-13T08:42:44.621Z,1.60
2019-01-13T08:45:13.295Z,1.43
2019-01-13T08:47:41.751Z,1.80
2019-01-13T08:50:13.408Z,1.93
2019-01-13T08:52:41.884Z,2.20
2019-01-13T08:55:10.544Z,1.97
2019-01-13T08:57:39.192Z,2.43
2019-01-13T09:00:24.859Z,2.90
2019-01-13T09:02:53.319Z,2.73
2019-01-13T09:05:21.843Z,2.80
2019-01-13T09:07:50.279Z,3.37
2019-01-13T09:10:19.679Z,3.30
2019-01-13T09:12:48.676Z,3.30
2019-01-13T09:15:19.573Z,3.30
2019-01-13T09:17:48.162Z,4.40
2019-01-13T09:20:19.192Z,3.73
2019-01-13T09:22:47.690Z,4.23
2019-01-13T09:25:16.142Z,4.23
2019-01-13T09:27:44.680Z,3.90
2019-01-13T09:30:25.099Z,3.63
2019-01-13T09:32:53.532Z,3.97
2019-01-13T09:35:22.146Z,3.93
2019-01-13T09:37:50.822Z,4.13
2019-01-13T09:40:22.294Z,3.90
2019-01-13T09:42:50.900Z,4.53
2019-01-13T09:45:19.480Z,4.23
2019-01-13T09:47:48.022Z,3.70
2019-01-13T09:50:18.796Z,3.57
2019-01-13T09:52:47.517Z,3.87
2019-01-13T09:55:18.215Z,4.00
2019-01-13T09:57:46.717Z,3.73
2019-01-13T10:00:26.969Z,3.90
2019-01-13T10:02:55.493Z,4.10
2019-01-13T10:05:23.959Z,3.90
2019-01-13T10:07:52.558Z,3.93
2019-01-13T10:10:21.111Z,3.63
2019-01-13T10:12:49.639Z,3.60
2019-01-13T10:15:20.934Z,3.93
2019-01-13T10:17:49.534Z,3.70
2019-01-13T10:20:18.123Z,3.50
2019-01-13T10:22:46.641Z,2.97
2019-01-13T10:25:15.346Z,2.87
2019-01-13T10:27:47.031Z,3.40
2019-01-13T10:30:18.303Z,3.33
2019-01-13T10:32:54.299Z,3.03
2019-01-13T10:35:17.117Z,3.13
2019-01-13T10:37:46.805Z,3.07
2019-01-13T10:40:17.739Z,2.97
2019-01-13T10:42:46.415Z,2.80
2019-01-13T10:45:16.791Z,2.67
2019-01-13T10:47:45.328Z,2.70
2019-01-13T10:50:22.514Z,2.93
2019-01-13T10:52:51.297Z,2.60
2019-01-13T10:55:19.837Z,2.40
2019-01-13T10:57:48.279Z,2.80
2019-01-13T11:00:22.815Z,2.13
2019-01-13T11:02:51.318Z,2.07
2019-01-13T11:05:20.108Z,2.10
2019-01-13T11:07:48.755Z,2.80
2019-01-13T11:10:17.833Z,2.07
2019-01-13T11:12:46.298Z,2.00
2019-01-13T11:15:21.584Z,2.00
2019-01-13T11:17:47.365Z,1.70
2019-01-13T11:20:27.498Z,2.50
2019-01-13T11:22:55.970Z,2.73
2019-01-13T11:25:24.537Z,2.10
2019-01-13T11:27:53.077Z,2.60
2019-01-13T11:30:24.126Z,1.97
2019-01-13T11:32:52.560Z,6.33
2019-01-13T11:35:23.006Z,1.13
2019-01-13T11:37:52.022Z,1.70
2019-01-13T11:40:25.444Z,1.50
2019-01-13T11:42:54.003Z,1.30
2019-01-13T11:45:23.647Z,1.40
2019-01-13T11:47:52.146Z,1.30
2019-01-13T11:50:22.962Z,1.40
2019-01-13T11:52:51.468Z,1.30
2019-01-13T11:55:20.477Z,1.40
2019-01-13T11:57:49.307Z,1.30
2019-01-13T12:00:33.236Z,0.73
2019-01-13T12:03:06.638Z,0.80
2019-01-13T12:05:31.915Z,1.00
2019-01-13T12:08:01.397Z,0.80
2019-01-13T12:10:30.066Z,0.80
2019-01-13T12:12:58.494Z,0.70
2019-01-13T12:15:27.039Z,0.60
2019-01-13T12:17:55.673Z,0.70
2019-01-13T12:20:25.580Z,0.60
2019-01-13T12:22:54.255Z,0.90
2019-01-13T12:25:23.641Z,2.17
2019-01-13T12:27:52.652Z,0.97
2019-01-13T12:30:23.619Z,1.00
2019-01-13T12:32:52.203Z,0.83
2019-01-13T12:35:22.037Z,0.90
2019-01-13T12:37:50.893Z,0.40
2019-01-13T12:40:21.809Z,0.90
2019-01-13T12:42:50.497Z,0.50
2019-01-13T12:45:20.870Z,0.60
2019-01-13T12:47:49.718Z,0.60
2019-01-13T12:50:22.610Z,0.67
2019-01-13T12:52:51.146Z,0.50
2019-01-13T12:55:19.747Z,1.00
2019-01-13T12:57:49.073Z,0.50
2019-01-13T13:00:19.257Z,0.50
2019-01-13T13:02:47.703Z,2.50
2019-01-13T13:05:17.392Z,0.70
2019-01-13T13:07:46.709Z,0.80
2019-01-13T13:10:20.914Z,0.53
2019-01-13T13:12:49.432Z,0.40
2019-01-13T13:15:17.903Z,0.30
2019-01-13T13:17:46.430Z,0.50
2019-01-13T13:20:16.224Z,0.40
2019-01-13T13:22:44.742Z,0.30
2019-01-13T13:25:14.215Z,0.43
2019-01-13T13:27:42.731Z,0.27
2019-01-13T13:30:19.970Z,0.40
2019-01-13T13:32:48.512Z,0.33
2019-01-13T13:35:17.213Z,0.43
2019-01-13T13:37:46.074Z,0.50
2019-01-13T13:40:17.540Z,0.73
2019-01-13T13:42:46.414Z,3.93
2019-01-13T13:45:15.042Z,0.60
2019-01-13T13:47:43.584Z,0.40
2019-01-13T13:50:17.618Z,0.43
2019-01-13T13:52:46.171Z,0.40
2019-01-13T13:55:14.665Z,0.57
2019-01-13T13:57:43.198Z,0.50
2019-01-13T14:00:20.232Z,0.63
2019-01-13T14:02:48.793Z,0.47
2019-01-13T14:05:17.225Z,0.60
2019-01-13T14:07:45.686Z,0.53
2019-01-13T14:10:17.204Z,0.50
2019-01-13T14:12:45.642Z,0.70
2019-01-13T14:15:14.261Z,0.60
2019-01-13T14:17:42.854Z,0.70
2019-01-13T14:20:14.648Z,0.70
2019-01-13T14:22:43.155Z,0.73
2019-01-13T14:25:11.763Z,0.70
2019-01-13T14:27:40.212Z,0.60
2019-01-13T14:30:17.901Z,1.00
2019-01-13T14:32:46.408Z,0.73
2019-01-13T14:35:14.957Z,0.80
2019-01-13T14:37:43.537Z,1.00
2019-01-13T14:40:14.994Z,0.80
2019-01-13T14:42:43.438Z,0.97
2019-01-13T14:45:17.091Z,1.20
2019-01-13T14:47:45.642Z,0.93
2019-01-13T14:50:17.209Z,1.27
2019-01-13T14:52:46.902Z,1.10
2019-01-13T14:55:15.939Z,1.10
2019-01-13T14:57:44.614Z,1.10
2019-01-13T15:00:16.341Z,1.40
2019-01-13T15:02:44.783Z,1.00
2019-01-13T15:05:14.164Z,1.40
2019-01-13T15:07:59.043Z,1.77
2019-01-13T15:10:27.473Z,1.37
2019-01-13T15:12:56.111Z,1.90
2019-01-13T15:15:24.692Z,1.50
2019-01-13T15:17:53.149Z,1.57
2019-01-13T15:20:23.229Z,1.90
2019-01-13T15:22:52.440Z,2.10
2019-01-13T15:25:23.923Z,1.80
2019-01-13T15:27:52.591Z,2.40
2019-01-13T15:30:26.538Z,2.67
2019-01-13T15:32:54.991Z,2.83
2019-01-13T15:35:23.495Z,2.53
2019-01-13T15:37:52.133Z,2.00
2019-01-13T15:40:21.520Z,1.70
2019-01-13T15:42:50.245Z,1.60
2019-01-13T15:45:18.938Z,1.93
2019-01-13T15:47:47.551Z,1.80
2019-01-13T15:50:24.466Z,1.93
2019-01-13T15:52:53.043Z,1.37
2019-01-13T15:55:21.583Z,1.47
2019-01-13T15:57:51.230Z,1.60
2019-01-13T16:00:22.196Z,2.80
2019-01-13T16:02:50.714Z,3.37
2019-01-13T16:05:19.220Z,3.90
2019-01-13T16:07:47.765Z,1.73
2019-01-13T16:10:18.464Z,2.93
2019-01-13T16:12:47.298Z,1.50
2019-01-13T16:15:15.974Z,1.40
2019-01-13T16:17:44.614Z,1.30
2019-01-13T16:20:15.961Z,1.07
2019-01-13T16:22:44.834Z,1.83
2019-01-13T16:25:13.352Z,1.37
2019-01-13T16:27:41.955Z,1.70
2019-01-13T16:30:24.159Z,2.33
2019-01-13T16:32:52.647Z,2.67
2019-01-13T16:35:21.229Z,2.13
2019-01-13T16:37:49.855Z,2.10
2019-01-13T16:40:20.223Z,2.03
2019-01-13T16:42:48.723Z,1.90
2019-01-13T16:45:18.162Z,1.70
2019-01-13T16:47:47.645Z,1.63
2019-01-13T16:50:21.520Z,2.50
2019-01-13T16:52:51.793Z,2.63
2019-01-13T16:55:20.903Z,2.00
2019-01-13T16:57:50.047Z,1.50
2019-01-13T17:00:21.219Z,2.07
2019-01-13T17:02:49.695Z,3.43
2019-01-13T17:05:19.476Z,2.50
2019-01-13T17:07:48.263Z,2.90
2019-01-13T17:10:18.565Z,2.33
2019-01-13T17:12:47.132Z,2.37
2019-01-13T17:15:17.546Z,2.90
2019-01-13T17:17:46.049Z,2.40
2019-01-13T17:20:19.895Z,2.80
2019-01-13T17:22:48.412Z,2.80
2019-01-13T17:25:24.922Z,2.30
2019-01-13T17:27:53.526Z,2.47
2019-01-13T17:30:27.092Z,2.37
2019-01-13T17:32:55.658Z,2.20
2019-01-13T17:35:24.190Z,2.57
2019-01-13T17:37:52.708Z,2.77
2019-01-13T17:40:22.817Z,2.10
2019-01-13T17:42:51.572Z,2.37
2019-01-13T17:45:22.728Z,2.27
2019-01-13T17:47:51.630Z,2.50
2019-01-13T17:50:24.482Z,2.30
2019-01-13T17:52:53.085Z,2.67
2019-01-13T17:55:26.176Z,2.27
2019-01-13T17:57:54.660Z,2.43
2019-01-13T18:00:34.870Z,2.00
2019-01-13T18:03:06.463Z,1.93
2019-01-13T18:05:34.919Z,2.07
2019-01-13T18:08:03.480Z,2.10
2019-01-13T18:10:31.913Z,1.90
2019-01-13T18:13:00.413Z,1.80
2019-01-13T18:15:28.929Z,1.80
2019-01-13T18:17:57.405Z,1.63
2019-01-13T18:20:25.996Z,1.37
2019-01-13T18:22:54.525Z,1.17
2019-01-13T18:25:23.153Z,1.17
2019-01-13T18:27:51.683Z,0.83
2019-01-13T18:30:22.355Z,0.90
2019-01-13T18:32:50.957Z,0.70
2019-01-13T18:35:20.851Z,0.60
2019-01-13T18:37:49.463Z,0.57
2019-01-13T18:40:20.389Z,0.50
2019-01-13T18:42:48.995Z,0.50
2019-01-13T18:45:17.743Z,0.53
2019-01-13T18:47:46.303Z,0.47
2019-01-13T18:50:17.353Z,0.57
2019-01-13T18:53:03.887Z,0.50
2019-01-13T18:55:32.396Z,0.40
2019-01-13T18:58:01.075Z,0.50
2019-01-13T19:00:29.570Z,0.40
2019-01-13T19:02:58.075Z,0.20
2019-01-13T19:05:27.961Z,0.30
2019-01-13T19:07:56.665Z,0.40
2019-01-13T19:10:34.577Z,0.23
2019-01-13T19:13:06.184Z,0.30
2019-01-13T19:15:34.638Z,0.10
2019-01-13T19:20:52.238Z,0.23
2019-01-13T19:23:21.561Z,0.30
2019-01-13T19:25:50.020Z,0.30
2019-01-13T19:28:18.559Z,0.50
2019-01-13T19:30:47.082Z,0.47
2019-01-13T19:33:15.728Z,0.67
2019-01-13T19:35:44.279Z,0.50
2019-01-13T19:38:12.742Z,0.57
2019-01-13T19:40:41.358Z,0.50
2019-01-13T19:43:09.819Z,1.00
2019-01-13T19:45:38.523Z,0.83
2019-01-13T19:48:07.173Z,1.17
2019-01-13T19:50:35.716Z,0.90
2019-01-13T19:53:04.443Z,0.90
2019-01-13T19:55:33.061Z,1.00
2019-01-13T19:58:01.506Z,1.20
2019-01-13T20:00:32.678Z,0.90
2019-01-13T20:03:01.214Z,1.17
2019-01-13T20:05:29.790Z,1.23
2019-01-13T20:07:58.393Z,0.93
2019-01-13T20:10:27.033Z,1.20
2019-01-13T20:12:55.560Z,1.00
2019-01-13T20:15:24.291Z,0.90
2019-01-13T20:17:52.812Z,1.20
2019-01-13T20:20:22.012Z,1.23
2019-01-13T20:22:50.627Z,1.20
2019-01-13T20:25:19.697Z,1.13
2019-01-13T20:27:48.543Z,0.90
2019-01-13T20:30:20.009Z,0.80
2019-01-13T20:32:48.649Z,0.90
2019-01-13T20:35:19.383Z,1.07
2019-01-13T20:37:47.420Z,0.50
2019-01-13T20:40:17.265Z,1.23
2019-01-13T20:42:45.999Z,0.70
2019-01-13T20:45:26.425Z,1.20
2019-01-13T20:47:55.059Z,3.90
2019-01-13T20:50:23.581Z,1.20
2019-01-13T20:52:52.191Z,1.10
2019-01-13T20:55:20.907Z,1.00
2019-01-13T20:57:49.429Z,1.30
2019-01-13T21:00:25.947Z,1.07
2019-01-13T21:02:54.525Z,0.97
2019-01-13T21:05:26.895Z,0.97
2019-01-13T21:07:53.481Z,0.73
2019-01-13T21:10:22.192Z,1.00
2019-01-13T21:12:50.853Z,1.40
2019-01-13T21:15:30.583Z,1.00
2019-01-13T21:17:59.101Z,1.07
2019-01-13T21:20:28.097Z,1.10
2019-01-13T21:22:56.639Z,1.07
2019-01-13T21:25:25.190Z,1.20
2019-01-13T21:27:55.439Z,0.97
2019-01-13T21:30:28.837Z,0.60
2019-01-13T21:32:57.287Z,0.80
2019-01-13T21:35:25.829Z,0.67
2019-01-13T21:37:54.323Z,0.60
2019-01-13T21:40:22.893Z,1.10
2019-01-13T21:42:52.192Z,0.70
2019-01-13T21:45:22.521Z,0.87
2019-01-13T21:47:50.982Z,0.70
2019-01-13T21:50:22.053Z,0.80
2019-01-13T21:52:50.598Z,0.90
2019-01-13T21:55:20.344Z,0.90
2019-01-13T21:57:48.803Z,0.87
2019-01-13T22:00:23.074Z,1.10
2019-01-13T22:02:52.452Z,0.90
2019-01-13T22:05:21.020Z,1.00
2019-01-13T22:07:50.783Z,1.00
2019-01-13T22:10:23.569Z,1.50
2019-01-13T22:12:52.359Z,0.70
2019-01-13T22:15:21.866Z,0.77
2019-01-13T22:17:50.891Z,1.00
2019-01-13T22:20:21.863Z,0.90
2019-01-13T22:22:50.757Z,0.90
2019-01-13T22:25:19.271Z,0.97
2019-01-13T22:27:47.858Z,0.60
2019-01-13T22:30:21.531Z,0.63
2019-01-13T22:32:50.038Z,1.20
2019-01-13T22:35:18.578Z,0.70
2019-01-13T22:37:47.067Z,0.77
2019-01-13T22:40:17.180Z,0.53
2019-01-13T22:42:46.063Z,0.70
2019-01-13T22:45:17.226Z,0.97
2019-01-13T22:47:45.906Z,0.60
2019-01-13T22:50:15.811Z,1.07
2019-01-13T22:52:44.467Z,0.60
2019-01-13T22:55:13.179Z,0.80
2019-01-13T22:57:42.460Z,0.87
2019-01-13T23:00:48.382Z,0.50
2019-01-13T23:03:16.972Z,1.03
2019-01-13T23:05:45.507Z,0.73
2019-01-13T23:08:13.963Z,1.13
2019-01-13T23:10:42.443Z,0.80
2019-01-13T23:13:10.875Z,1.00
2019-01-13T23:15:39.336Z,0.97
2019-01-13T23:18:07.855Z,0.80
2019-01-13T23:20:36.296Z,1.20
2019-01-13T23:23:04.831Z,0.93
2019-01-13T23:25:33.286Z,1.00
2019-01-13T23:28:01.729Z,1.00
2019-01-13T23:30:30.177Z,0.73
2019-01-13T23:32:58.641Z,0.90
2019-01-13T23:35:27.084Z,0.63
2019-01-13T23:37:55.535Z,0.67
2019-01-13T23:40:23.983Z,0.93
2019-01-13T23:42:52.431Z,0.83
2019-01-13T23:45:20.875Z,1.00
2019-01-13T23:47:49.325Z,0.77
2019-01-13T23:50:17.749Z,0.67
2019-01-13T23:52:46.596Z,0.73
2019-01-13T23:55:15.179Z,0.67
2019-01-13T23:57:45.795Z,0.83
